Schedule Details


Flight Number: CTN391
Departure: Malpensa (LIMC) at 20:00
Arrival: Franjo Tudman (LDZA) at 21:30
Route: VAKON Q702 CHI L614 PUL P11 CRE W45 KULEN M986 KOTOR

Weather Information
LIMC 172350Z VRB02KT 9999 FEW070 21/17 Q1017 NOSIG
LDZA 180000Z 00000KT CAVOK 18/16 Q1017 NOSIG
Schedule Frequency

Route Map